KHOU/HOU METAR and TAF weather

Enter ICAO airport designator
Station Type Date Time Source
KHOU METAR 2019/04/25 01:53 UTC NOAA

KHOU 250153Z 16010KT 8SM -TSRA SCT014 BKN023CB OVC095 23/21 A2981 RMK AO2 LTG DSNT ALQDS RAB48 TSB50 SLP099 OCNL LTGIC SW-NW-N TS SW-NW-N MOV NE P0001 T02330211


Station Type Date Time Source
KHOU Decoded METAR 2019/04/25 01:53 UTC NOAA

HOUSTON HOBBY AIRPORT, TX, United States (KHOU) 29-38N 095-17W 36M
Apr 24, 2019 - 09:53 PM EDT / 2019.04.25 0153 UTC
Wind: from the SSE (160 degrees) at 12 MPH (10 KT):0
Visibility: 8 mile(s):0
Sky conditions: overcast
Weather: light rain with thunder; Cumulonimbus clouds, lightning observed
Precipitation last hour: 0.01 inches
Temperature: 73.9 F (23.3 C)
Dew Point: 70.0 F (21.1 C)
Relative Humidity: 87%
Pressure (altimeter): 29.81 in. Hg (1009 hPa)
ob: KHOU 250153Z 16010KT 8SM -TSRA SCT014 BKN023CB OVC095 23/21 A2981 RMK AO2 LTG DSNT ALQDS RAB48 TSB50 SLP099 OCNL LTGIC SW-NW-N TS SW-NW-N MOV NE P0001 T02330211
cycle: 2

Station Type Date Time Source
KHOU TAF 2019/04/24 21:51 UTC NOAA

TAF
AMD KHOU 242048Z 2421/2518 14015KT P6SM SCT025 BKN050
FM250200 14009KT P6SM -SHRA VCTS SCT025CB BKN035 BKN250
FM250400 16008KT P6SM VCTS BKN025CB BKN045
TEMPO 2504/2507 VRB15G25KT 3SM TSRA BKN015CB
FM250800 26011KT P6SM VCSH BKN008 OVC012
FM251100 32009KT P6SM OVC015
FM251600 31007KT P6SM SCT015

Example: see airport list